Conway, MI (49722)

1:23 AM EDT on June 23, 2017 (GMT -0400)
S. E. Petoskey | | Change Station

Elev 886 ft 45.37 °N, 84.94 °W | Updated 13 seconds ago

Light Rain
Light Rain
62.6 °F
Feels Like 62.6 °F
N
0.7
Wind Variable Wind from ESE
Gusts 2.5 mph

Today
High -- | Low -- °F
--% Chance of Precip.
Yesterday
High -- | Low -- °F
Precip. -- in
Pressure 29.66 in
Visibility 1.8 miles
Clouds Scattered Clouds 100 ft
Scattered Clouds 2300 ft
Mostly Cloudy 6000 ft
Dew Point 62 °F
Humidity 97%
Rainfall 0.00 in
Snow Depth Not available.
5:51 AM 9:31 PM
Waning Crescent, 1% visible
METAR KMGN 230454Z AUTO 00000KT 1 3/4SM -RA SCT001 SCT023 BKN060 16/16 A2966 RMK AO2 T01620162
Pressure 29.66 in
Visibility 1.8 miles
Clouds Scattered Clouds 100 ft
Scattered Clouds 2300 ft
Mostly Cloudy 6000 ft
Dew Point 62 °F
Humidity 97%
Rainfall 0.00 in
Snow Depth Not available.
5:51 AM 9:31 PM
Waning Crescent, 1% visible
METAR KMGN 230454Z AUTO 00000KT 1 3/4SM -RA SCT001 SCT023 BKN060 16/16 A2966 RMK AO2 T01620162

Get Severe Weather Alerts

Thanks for signing up!

Be on the lookout for a verification email in your inbox.

You'll start receiving the daily forecast at 6 AM.

×

10-Day Weather Forecast

Almanac

Astronomy

Jun. 23, 2017 Rise Set
Actual Time
Civil Twilight
Nautical Twilight
Astronomical Twilight
Moon
Length of Visible Light
Length of Day
Tomorrow will be .
, % of the Moon is Illuminated

Today's Extremes

State Highs State Lows

Community

WunderPhotos

Category 6

Welcome to Category 6. This is the collective home for Weather Underground's featured writeups by Dr. Jeff Masters (right), Bob Henson (left), Chris Burt, and other regular contributors.

Nearby

Air Quality

  Air Quality AQ Index Pollutant
Not available.

Snow Depth

Station Depth Elevation

Earthquake Activity

City Distance Mag. Time & Date
Minimum magnitude displayed is 2.5.

Coastal Water Temperatures

Place Temperature

Stations

Nearby Weather Stations

Station Location Temp. Windchill Dew Point Humidity Wind Precip. Elev Updated Type
                   

Watches & Warnings

There are currently no watches in effect.